Strona główna
METAR-TAF:

METAR-TAF

Lotnisko :

Port lotniczy Yarmouth

Yarmouth, Nowa Szkocja, Kanada

Szerokość geograficzna: 43-50N, Długość geograficzna: 066-05W, wysokość: 43 m

Aktualna obserwacja pogody

Raport powstał 29 minut temu, godzina 00:00 UTC
Wiatr 4 kt od zachodnio-północny zachód
Temperatura 1°C
Wilgotność 93%
Ciśnienie 1015 hPa
Widzialność: 24.1 km
bezchmurnie

METAR: CYQI 050000Z 29004KT 15SM SKC 01/00 A2998 RMK SLP156

czas: 21:29 (00:29 UTC)

Prognoza

Raport powstał 51 minut temu, godzina 23:38 UTC
Prognoza ważna od 05 godzina 00 UTC do 05 godzina 12 UTC
Wiatr 3 kt z kierunków zmiennych
Widzialność: 10 km
Mało chmury na wysokości 3000 ft
Od 05 godzina 0400 UTC
Wiatr 3 kt z kierunków zmiennych
Widzialność: 10 km
Rozproszone chmury na wysokości 2000 ft
Przejściowo
od 05 godzina 04 UTC do 05 godzina 12 UTC
Przerywane chmury na wysokości 2000 ft

TAF: CYQI 042338Z 0500/0512 VRB03KT P6SM FEW030 FM050400 VRB03KT P6SM SCT020 TEMPO 0504/0512 BKN020 RMK NXT FCST BY 050600Z

Obserwacja i prognoza pogody dla ponad 4000 lotnisk (raport METAR i TAF).

Dostępne stacje oznaczono żółtymi i czerwonymi punktami na mapie.

Najedź kursorem aby zobaczyć nazwę stacji.

Kliknij aby zobaczyć obserwacje i prognozy pogody.

Aby zmienić mapę: kliknij na zielony przycisk z czarnym krzyżykiem, aby powiększyć; na zielony przycisk z myślnikiem, aby pomniejszyć; na zielone strzałki, aby przejść do map sąsiednich.


METAR-TAF: